Time;durP1;ratioP1;P1;durP2;ratioP2;P2;SDS_P1;SDS_P2;PMS_P1;PMS_P2;Temp;Humidity;BMP_temperature;BMP_pressure;BME280_temperature;BME280_humidity;BME280_pressure;Samples;Min_cycle;Max_cycle;Signal;HPM_P1;HPM_P2
2022/09/23 00:08:14;;;;;;;2.25;1.50;;;10.90;99.90;;;;;;5033181;28;20044;-67
2022/09/23 00:11:21;;;;;;;2.75;1.27;;;10.90;99.90;;;;;;5032864;28;20056;-66
2022/09/23 00:14:25;;;;;;;3.65;1.40;;;10.90;99.90;;;;;;5032946;28;20049;-67
2022/09/23 00:17:30;;;;;;;1.90;1.58;;;10.70;99.90;;;;;;5032942;28;20057;-67
2022/09/23 00:21:13;;;;;;;3.17;1.40;;;10.60;99.90;;;;;;5032452;28;20048;-66
2022/09/23 00:24:36;;;;;;;4.13;2.42;;;10.60;99.90;;;;;;5032348;28;20044;-67
2022/09/23 00:27:41;;;;;;;2.15;1.95;;;10.50;99.90;;;;;;5030560;28;20036;-67
2022/09/23 00:31:03;;;;;;;4.22;2.83;;;10.40;99.90;;;;;;5031884;28;20396;-67
2022/09/23 00:34:28;;;;;;;5.85;4.60;;;10.30;99.90;;;;;;5031515;28;20045;-67
2022/09/23 00:37:51;;;;;;;6.43;5.72;;;10.40;99.90;;;;;;5031674;28;20028;-66
2022/09/23 00:40:55;;;;;;;9.30;6.97;;;10.40;99.90;;;;;;5032067;28;20056;-67
2022/09/23 00:44:00;;;;;;;8.95;7.22;;;10.30;99.90;;;;;;5031695;28;20068;-66
2022/09/23 00:47:13;;;;;;;9.20;5.05;;;10.30;99.90;;;;;;5032037;28;20052;-67
2022/09/23 00:50:57;;;;;;;7.70;7.00;;;10.40;99.90;;;;;;5031449;28;20393;-67
2022/09/23 00:54:02;;;;;;;3.67;2.97;;;10.40;99.90;;;;;;5030735;28;20064;-66
2022/09/23 00:57:26;;;;;;;3.80;2.97;;;10.40;99.90;;;;;;5031633;28;20044;-67
2022/09/23 01:00:31;;;;;;;4.78;3.40;;;10.40;99.90;;;;;;5031381;28;20060;-67
2022/09/23 01:03:34;;;;;;;9.50;5.43;;;10.40;99.90;;;;;;5030948;28;20053;-67
2022/09/23 01:06:39;;;;;;;4.10;2.60;;;10.20;99.90;;;;;;5031286;28;20040;-67
2022/09/23 01:09:45;;;;;;;6.18;5.53;;;10.30;99.90;;;;;;5031165;28;20044;-67
2022/09/23 01:12:52;;;;;;;8.80;4.45;;;10.30;99.90;;;;;;5029584;28;20056;-67
2022/09/23 01:16:28;;;;;;;3.25;2.90;;;10.30;99.90;;;;;;5031101;28;20522;-67
2022/09/23 01:23:23;;;;;;;8.00;3.78;;;10.00;99.90;;;;;;5030729;28;20420;-67
2022/09/23 01:26:51;;;;;;;4.63;4.22;;;10.00;99.90;;;;;;5030744;28;20068;-67
2022/09/23 01:30:31;;;;;;;8.35;7.28;;;9.90;99.90;;;;;;5031106;28;20048;-67
2022/09/23 01:34:23;;;;;;;13.15;6.68;;;9.90;99.90;;;;;;5011843;28;20041;-67
2022/09/23 01:37:57;;;;;;;3.70;2.65;;;9.90;99.90;;;;;;5030486;28;20032;-67
2022/09/23 01:41:04;;;;;;;4.57;2.90;;;10.00;99.90;;;;;;5030750;28;20041;-67
2022/09/23 01:44:29;;;;;;;9.18;5.53;;;9.90;99.90;;;;;;5029900;28;20045;-67
2022/09/23 01:47:46;;;;;;;5.65;3.90;;;9.90;99.90;;;;;;5030644;28;20357;-67
2022/09/23 01:51:13;;;;;;;6.43;3.67;;;9.90;99.90;;;;;;5030418;28;20038;-66
2022/09/23 01:54:52;;;;;;;8.45;4.15;;;9.80;99.90;;;;;;5030148;28;20045;-66
2022/09/23 01:58:06;;;;;;;2.60;2.08;;;9.80;99.90;;;;;;5030602;28;20291;-66
2022/09/23 02:01:16;;;;;;;2.42;1.77;;;9.80;99.90;;;;;;5029585;28;20029;-66
2022/09/23 02:04:38;;;;;;;2.42;1.40;;;9.90;99.90;;;;;;5029434;28;20053;-67
2022/09/23 02:07:52;;;;;;;3.55;2.10;;;9.90;99.90;;;;;;5030541;28;20072;-67
2022/09/23 02:15:03;;;;;;;2.42;1.48;;;9.90;99.90;;;;;;5029744;28;20041;-67
2022/09/23 02:18:29;;;;;;;2.60;1.90;;;9.80;99.90;;;;;;5030314;28;20030;-68
2022/09/23 02:22:10;;;;;;;2.72;1.50;;;9.70;99.90;;;;;;5030296;28;20038;-68
2022/09/23 02:32:55;;;;;;;2.47;1.80;;;9.50;99.90;;;;;;5029654;28;20034;-68
2022/09/23 02:36:09;;;;;;;3.22;1.40;;;9.40;99.90;;;;;;5029934;28;20033;-68
2022/09/23 02:39:14;;;;;;;2.25;1.75;;;9.30;99.90;;;;;;5029682;28;20042;-67
2022/09/23 02:42:49;;;;;;;2.15;1.55;;;9.40;99.90;;;;;;5029728;28;20038;-67
2022/09/23 02:46:11;;;;;;;2.95;1.77;;;9.50;99.90;;;;;;5029779;28;20053;-67
2022/09/23 02:49:35;;;;;;;2.70;1.58;;;9.40;99.90;;;;;;5029706;28;20046;-67
2022/09/23 02:52:39;;;;;;;2.13;1.67;;;9.30;99.90;;;;;;5029586;28;20041;-66
2022/09/23 02:55:43;;;;;;;1.88;1.65;;;9.40;99.90;;;;;;5029609;28;20374;-68
2022/09/23 02:59:25;;;;;;;2.30;1.80;;;9.40;99.90;;;;;;5029838;28;20473;-67
2022/09/23 03:03:32;;;;;;;2.90;2.42;;;9.40;99.90;;;;;;5029344;28;20038;-67
2022/09/23 03:07:01;;;;;;;3.00;2.05;;;9.40;99.90;;;;;;5029583;28;20037;-67
2022/09/23 03:10:23;;;;;;;2.50;1.83;;;9.30;99.90;;;;;;5028623;28;20038;-68
2022/09/23 03:14:40;;;;;;;3.78;1.90;;;9.20;99.90;;;;;;5027554;28;20042;-67
2022/09/23 03:18:25;;;;;;;4.00;2.92;;;9.10;99.90;;;;;;5017839;28;20033;-67
2022/09/23 03:22:01;;;;;;;3.60;2.67;;;9.10;99.90;;;;;;5033549;28;20038;-67
2022/09/23 03:28:49;;;;;;;2.97;1.85;;;9.20;99.90;;;;;;5033600;28;20045;-67
2022/09/23 03:31:53;;;;;;;3.83;2.00;;;9.20;99.90;;;;;;5033497;28;20045;-67
2022/09/23 03:35:16;;;;;;;4.82;2.60;;;9.20;99.90;;;;;;5032586;28;20045;-67
2022/09/23 03:38:25;;;;;;;4.35;2.45;;;9.20;99.90;;;;;;5033449;28;20029;-67
2022/09/23 03:41:33;;;;;;;2.75;2.30;;;9.20;99.90;;;;;;5032866;28;20049;-66
2022/09/23 03:44:43;;;;;;;3.63;2.13;;;9.00;99.90;;;;;;5032468;28;20037;-66
2022/09/23 03:48:06;;;;;;;2.83;2.50;;;9.00;99.90;;;;;;5032591;28;20041;-67
2022/09/23 03:55:12;;;;;;;3.40;3.10;;;8.80;99.90;;;;;;5031787;28;20041;-67
2022/09/23 03:58:16;;;;;;;3.55;2.50;;;8.80;99.90;;;;;;5032649;28;20034;-67
2022/09/23 04:01:20;;;;;;;2.58;1.77;;;8.80;99.90;;;;;;5032479;28;20037;-67
2022/09/23 04:07:51;;;;;;;2.35;2.00;;;8.80;99.90;;;;;;5032210;28;20061;-67
2022/09/23 04:11:13;;;;;;;4.43;1.90;;;8.80;99.90;;;;;;5032120;28;20037;-67
2022/09/23 04:14:18;;;;;;;;;;;8.70;99.90;;;;;;5032588;28;20049;-66
2022/09/23 04:17:40;;;;;;;4.20;2.20;;;8.70;99.90;;;;;;5032564;28;20280;-67
2022/09/23 04:20:45;;;;;;;4.97;2.05;;;8.90;99.90;;;;;;5032624;28;20037;-67
2022/09/23 04:23:49;;;;;;;3.05;2.22;;;8.60;99.90;;;;;;5031595;28;20037;-66
2022/09/23 04:27:12;;;;;;;3.70;2.30;;;8.30;99.90;;;;;;5031294;28;20045;-66
2022/09/23 04:30:17;;;;;;;2.63;1.70;;;8.10;99.90;;;;;;5031985;28;20389;-66
2022/09/23 04:33:21;;;;;;;9.18;2.45;;;7.90;99.90;;;;;;5031387;28;20045;-67
2022/09/23 04:36:44;;;;;;;2.30;1.88;;;7.80;99.90;;;;;;5032129;28;20045;-67
2022/09/23 04:39:48;;;;;;;3.03;2.08;;;7.80;99.90;;;;;;5032134;28;20029;-67
2022/09/23 04:42:52;;;;;;;6.65;2.10;;;7.80;99.90;;;;;;5031343;28;20041;-67
2022/09/23 04:46:16;;;;;;;2.33;2.03;;;7.80;99.90;;;;;;5031985;28;20057;-67
2022/09/23 04:49:19;;;;;;;2.83;1.90;;;7.90;99.90;;;;;;5031617;28;20045;-67
2022/09/23 04:52:23;;;;;;;5.10;2.30;;;7.90;99.90;;;;;;5031785;28;20473;-67
2022/09/23 04:55:28;;;;;;;7.68;2.10;;;7.80;99.90;;;;;;5031669;28;20366;-66
2022/09/23 04:58:33;;;;;;;5.10;2.22;;;7.40;99.90;;;;;;5032161;28;20393;-66
2022/09/23 05:05:19;;;;;;;12.85;3.78;;;7.90;99.90;;;;;;5011277;28;20042;-66
2022/09/23 05:08:50;;;;;;;6.47;3.08;;;7.90;99.90;;;;;;5011836;28;20282;-67
2022/09/23 05:11:53;;;;;;;39.95;14.95;;;8.00;99.90;;;;;;5011643;28;20038;-66
2022/09/23 05:15:17;;;;;;;32.63;12.27;;;7.00;99.90;;;;;;5011033;28;20037;-67
2022/09/23 05:18:41;;;;;;;16.02;6.93;;;8.10;99.90;;;;;;5011767;28;20045;-67
2022/09/23 05:21:45;;;;;;;6.47;2.95;;;8.30;99.90;;;;;;5011574;28;20057;-67
2022/09/23 05:24:49;;;;;;;4.57;2.38;;;8.30;99.90;;;;;;5010958;28;20037;-67
2022/09/23 05:28:15;;;;;;;12.70;6.20;;;8.30;99.90;;;;;;5011425;28;20046;-67
2022/09/23 05:31:21;;;;;;;11.25;5.00;;;8.20;99.90;;;;;;5011004;28;20420;-66
2022/09/23 05:34:25;;;;;;;12.68;5.85;;;8.10;99.90;;;;;;5010956;28;20056;-67
2022/09/23 05:37:31;;;;;;;11.65;4.25;;;8.10;99.90;;;;;;5011423;28;20041;-67
2022/09/23 05:40:55;;;;;;;18.85;5.18;;;8.10;99.90;;;;;;5010619;28;20045;-67
2022/09/23 05:44:00;;;;;;;24.90;7.30;;;8.00;99.90;;;;;;5010778;28;20048;-67
2022/09/23 05:47:04;;;;;;;17.23;5.00;;;7.70;99.90;;;;;;5010823;28;20064;-66
2022/09/23 05:50:08;;;;;;;7.20;4.47;;;8.00;99.90;;;;;;5012155;28;20057;-67
2022/09/23 05:53:12;;;;;;;11.18;4.22;;;9.40;99.90;;;;;;5027858;28;20041;-67
2022/09/23 05:56:19;;;;;;;6.28;3.60;;;12.90;99.90;;;;;;5030652;28;20040;-67
2022/09/23 05:59:23;;;;;;;4.50;1.80;;;15.70;99.90;;;;;;5030780;28;20040;-67
2022/09/23 06:02:48;;;;;;;4.88;2.53;;;17.80;99.90;;;;;;5030760;28;20048;-67
2022/09/23 06:05:53;;;;;;;3.97;2.50;;;20.40;97.60;;;;;;5028388;28;20392;-67
2022/09/23 06:08:59;;;;;;;16.60;4.32;;;21.60;95.10;;;;;;5028673;28;20041;-67
2022/09/23 06:12:03;;;;;;;16.23;4.93;;;23.40;92.60;;;;;;5019409;28;20041;-67
2022/09/23 06:15:07;;;;;;;5.60;2.25;;;22.00;86.90;;;;;;5026655;28;20045;-66
2022/09/23 06:18:12;;;;;;;4.25;2.10;;;21.80;88.10;;;;;;5025022;28;20052;-67
2022/09/23 06:21:17;;;;;;;3.88;2.30;;;20.30;90.60;;;;;;5030230;28;20802;-66
2022/09/23 06:24:58;;;;;;;3.28;2.00;;;21.10;90.90;;;;;;5025698;28;20045;-67
2022/09/23 06:28:02;;;;;;;10.00;2.53;;;23.20;90.00;;;;;;5029853;28;20053;-67
2022/09/23 06:32:03;;;;;;;10.10;4.82;;;24.70;86.70;;;;;;5028887;28;20037;-67
2022/09/23 06:35:26;;;;;;;6.43;3.60;;;26.00;84.40;;;;;;5028674;28;20041;-67
2022/09/23 06:38:49;;;;;;;4.95;2.83;;;26.00;80.90;;;;;;5022210;28;20041;-67
2022/09/23 06:41:54;;;;;;;10.23;3.30;;;24.20;80.80;;;;;;5028488;28;20056;-67
2022/09/23 06:45:19;;;;;;;6.07;3.45;;;23.90;81.90;;;;;;5025590;28;20068;-67
2022/09/23 06:48:43;;;;;;;5.97;3.13;;;23.60;82.10;;;;;;5023434;28;20048;-67
2022/09/23 06:51:47;;;;;;;5.82;3.13;;;24.50;81.30;;;;;;5027994;28;20300;-67
2022/09/23 06:54:52;;;;;;;7.22;2.72;;;25.70;79.90;;;;;;5032800;28;20499;-67
2022/09/23 06:58:14;;;;;;;3.53;2.35;;;26.20;78.70;;;;;;5028896;28;20113;-67
2022/09/23 07:01:18;;;;;;;4.55;2.83;;;26.30;77.30;;;;;;5021344;28;20063;-67
2022/09/23 07:04:23;;;;;;;6.50;2.13;;;26.90;77.20;;;;;;5025409;28;20495;-67
2022/09/23 07:07:30;;;;;;;5.95;1.98;;;27.40;76.20;;;;;;5032964;28;20503;-67
2022/09/23 07:10:35;;;;;;;6.85;2.20;;;27.70;74.60;;;;;;5030382;28;20049;-67
2022/09/23 07:13:40;;;;;;;3.30;1.85;;;27.40;74.70;;;;;;5031044;28;20404;-67
2022/09/23 07:17:23;;;;;;;3.30;1.90;;;26.90;74.10;;;;;;5018438;28;20033;-67
2022/09/23 07:20:27;;;;;;;3.10;1.67;;;27.30;74.00;;;;;;5033476;28;20060;-67
2022/09/23 07:23:32;;;;;;;3.45;1.70;;;27.50;72.60;;;;;;5032650;28;20506;-67
2022/09/23 07:26:37;;;;;;;3.40;1.83;;;27.50;73.30;;;;;;5016860;28;20052;-66
2022/09/23 07:30:00;;;;;;;3.45;1.80;;;27.90;73.10;;;;;;5024604;28;20045;-66
2022/09/23 07:33:04;;;;;;;2.47;1.63;;;26.70;73.10;;;;;;5032778;28;20044;-67
2022/09/23 07:36:17;;;;;;;2.53;1.50;;;27.80;73.30;;;;;;5032783;28;20602;-67
2022/09/23 07:39:21;;;;;;;1.85;1.27;;;29.10;72.10;;;;;;5017565;28;20033;-66
2022/09/23 07:42:44;;;;;;;6.15;2.05;;;28.60;71.40;;;;;;5031758;28;20503;-67
2022/09/23 07:49:52;;;;;;;4.28;1.50;;;29.00;68.80;;;;;;5031955;28;20045;-67
2022/09/23 07:53:34;;;;;;;2.55;1.10;;;26.80;70.40;;;;;;5031607;28;20396;-66
2022/09/23 07:56:39;;;;;;;2.83;1.73;;;28.20;70.80;;;;;;5032060;28;20040;-67
2022/09/23 07:59:43;;;;;;;1.98;1.20;;;30.00;69.60;;;;;;5031822;28;20044;-67
2022/09/23 08:02:47;;;;;;;4.18;1.35;;;31.40;67.60;;;;;;5030225;28;20036;-67
2022/09/23 08:05:52;;;;;;;2.63;1.10;;;31.40;65.70;;;;;;5031887;28;20044;-67
2022/09/23 08:08:57;;;;;;;4.68;1.20;;;31.60;66.80;;;;;;5029578;28;20963;-67
2022/09/23 08:12:02;;;;;;;2.47;1.05;;;31.60;65.60;;;;;;5032117;28;20048;-67
2022/09/23 08:15:07;;;;;;;2.60;0.75;;;31.50;63.70;;;;;;5018220;28;20496;-67
2022/09/23 08:18:30;;;;;;;2.30;0.82;;;29.30;64.30;;;;;;5031665;28;20053;-67
2022/09/23 08:25:15;;;;;;;1.58;0.73;;;30.80;63.50;;;;;;5028068;28;20388;-67
2022/09/23 08:28:20;;;;;;;3.20;0.80;;;31.20;62.20;;;;;;5031409;28;20040;-67
2022/09/23 08:31:43;;;;;;;2.15;1.10;;;30.60;63.10;;;;;;5027834;28;20492;-68
2022/09/23 08:35:05;;;;;;;3.83;1.52;;;28.40;64.30;;;;;;5027004;28;20060;-66
2022/09/23 08:42:31;;;;;;;1.92;1.10;;;29.80;64.00;;;;;;5029154;28;20511;-67
2022/09/23 08:45:37;;;;;;;2.65;0.90;;;32.00;64.00;;;;;;5029105;28;20957;-67
2022/09/23 08:48:45;;;;;;;5.07;1.48;;;31.40;63.30;;;;;;5030441;28;20052;-67
2022/09/23 08:51:53;;;;;;;2.13;1.45;;;35.40;58.10;;;;;;5026959;28;20397;-68
2022/09/23 08:55:18;;;;;;;2.45;1.77;;;35.30;58.90;;;;;;5030586;28;20053;-67
2022/09/23 08:59:00;;;;;;;1.17;1.00;;;35.40;58.80;;;;;;5030872;28;20047;-67
2022/09/23 09:02:17;;;;;;;3.08;1.40;;;36.50;57.40;;;;;;5021028;28;20056;-68
2022/09/23 09:05:27;;;;;;;4.65;1.45;;;37.20;56.20;;;;;;5022114;28;20527;-67
2022/09/23 09:08:53;;;;;;;3.97;0.73;;;37.70;55.70;;;;;;5028936;28;20048;-66
2022/09/23 09:12:35;;;;;;;5.40;1.08;;;38.20;54.10;;;;;;5019067;28;20033;-66
2022/09/23 09:16:08;;;;;;;1.58;0.80;;;38.50;52.80;;;;;;5025669;28;20053;-67
2022/09/23 09:19:54;;;;;;;2.33;1.10;;;33.50;54.90;;;;;;5030152;28;20495;-67
2022/09/23 09:22:59;;;;;;;2.35;1.23;;;31.50;57.60;;;;;;5030489;28;20539;-66
2022/09/23 09:29:54;;;;;;;2.60;1.02;;;33.20;57.80;;;;;;5021833;28;20507;-67
2022/09/23 09:36:51;;;;;;;1.98;0.90;;;36.50;54.30;;;;;;5027845;28;20045;-68
2022/09/23 09:39:55;;;;;;;2.60;1.10;;;37.70;52.90;;;;;;5025594;28;20048;-68
2022/09/23 09:43:24;;;;;;;1.52;1.00;;;39.40;52.60;;;;;;5028106;28;20032;-66
2022/09/23 09:46:49;;;;;;;4.07;1.07;;;39.90;52.10;;;;;;5031190;28;20036;-66
2022/09/23 09:50:18;;;;;;;4.00;1.20;;;39.40;52.00;;;;;;5029491;28;20048;-66
2022/09/23 09:53:24;;;;;;;2.63;0.93;;;39.50;51.60;;;;;;5021518;28;20044;-66
2022/09/23 09:56:33;;;;;;;1.38;0.90;;;39.40;49.70;;;;;;5021377;28;20045;-66
2022/09/23 10:00:16;;;;;;;1.63;1.00;;;40.40;51.00;;;;;;5027994;28;20036;-66
2022/09/23 10:03:32;;;;;;;4.00;0.77;;;41.00;50.00;;;;;;5029688;28;20396;-66
2022/09/23 10:06:36;;;;;;;1.67;0.98;;;39.30;50.20;;;;;;5024466;28;20045;-66
2022/09/23 10:09:48;;;;;;;1.45;0.90;;;39.40;50.20;;;;;;5026061;28;20476;-66
2022/09/23 10:12:52;;;;;;;3.33;1.13;;;40.00;48.80;;;;;;5023656;28;20502;-66
2022/09/23 10:15:58;;;;;;;1.30;0.90;;;40.80;50.00;;;;;;5030129;28;20040;-65
2022/09/23 10:19:10;;;;;;;2.25;0.80;;;39.70;49.40;;;;;;5013925;28;20048;-66
2022/09/23 10:22:25;;;;;;;1.55;0.80;;;38.50;50.40;;;;;;5027294;28;20036;-66
2022/09/23 10:25:30;;;;;;;2.83;1.00;;;40.70;48.00;;;;;;5022139;28;20061;-65
2022/09/23 10:28:43;;;;;;;1.50;0.75;;;38.30;48.40;;;;;;5028553;28;20036;-65
2022/09/23 10:32:21;;;;;;;2.15;0.82;;;37.80;47.20;;;;;;5024511;28;20049;-68
2022/09/23 10:35:27;;;;;;;0.95;0.70;;;38.80;48.50;;;;;;5028873;28;20040;-65
2022/09/23 10:49:14;;;;;;;2.05;0.70;;;38.10;47.60;;;;;;5020011;28;20251;-68
2022/09/23 10:52:39;;;;;;;1.65;0.80;;;38.00;47.10;;;;;;5029596;28;20495;-68
2022/09/23 10:55:45;;;;;;;0.82;0.50;;;39.00;46.80;;;;;;5030186;28;20052;-66
2022/09/23 10:59:26;;;;;;;0.70;0.52;;;40.50;45.80;;;;;;5012831;28;20040;-65
2022/09/23 11:03:08;;;;;;;0.90;0.80;;;38.70;46.30;;;;;;5018267;28;20041;-67
2022/09/23 11:09:49;;;;;;;1.67;0.80;;;33.50;49.30;;;;;;5027173;28;20499;-67
2022/09/23 11:13:12;;;;;;;1.15;0.88;;;35.30;49.10;;;;;;5026255;28;20068;-68
2022/09/23 11:16:59;;;;;;;2.88;0.80;;;36.20;48.60;;;;;;5028505;28;20033;-67
2022/09/23 11:20:35;;;;;;;2.17;0.95;;;37.80;47.80;;;;;;5010353;28;20041;-68
2022/09/23 11:24:14;;;;;;;1.95;0.80;;;38.50;47.10;;;;;;5012601;28;20499;-68
2022/09/23 11:31:26;;;;;;;1.30;0.82;;;41.00;45.90;;;;;;5021660;28;20045;-68
2022/09/23 11:34:58;;;;;;;2.45;1.35;;;41.40;46.30;;;;;;5025409;28;20061;-67
2022/09/23 11:38:10;;;;;;;1.75;0.90;;;33.30;48.10;;;;;;5026341;28;20056;-67
2022/09/23 11:41:28;;;;;;;1.77;1.20;;;32.50;48.20;;;;;;5023943;28;20034;-67
2022/09/23 11:44:50;;;;;;;2.30;1.10;;;33.60;50.20;;;;;;5026523;28;20057;-68
2022/09/23 11:48:07;;;;;;;2.75;1.15;;;35.30;48.60;;;;;;5031801;28;20045;-67
2022/09/23 11:51:17;;;;;;;1.30;1.10;;;37.60;48.70;;;;;;5030961;28;20044;-68
2022/09/23 11:54:47;;;;;;;1.73;0.90;;;37.90;48.00;;;;;;5028969;28;20452;-67
2022/09/23 11:58:13;;;;;;;1.42;0.90;;;37.20;48.60;;;;;;5024593;28;20041;-67
2022/09/23 12:01:30;;;;;;;2.88;1.10;;;37.50;48.10;;;;;;5025073;28;20045;-67
2022/09/23 12:04:39;;;;;;;1.77;0.98;;;38.40;48.00;;;;;;5026134;28;20040;-66
2022/09/23 12:08:31;;;;;;;3.63;1.40;;;36.60;47.50;;;;;;5031108;28;20053;-67
2022/09/23 12:11:45;;;;;;;2.63;1.02;;;35.20;49.60;;;;;;5026749;28;20502;-67
2022/09/23 12:15:04;;;;;;;4.60;1.20;;;34.20;49.50;;;;;;5021344;28;20036;-67
2022/09/23 12:18:27;;;;;;;1.38;1.02;;;34.20;49.60;;;;;;5030767;28;20045;-67
2022/09/23 12:22:00;;;;;;;1.65;1.08;;;32.50;49.60;;;;;;5029325;28;20404;-68
2022/09/23 12:25:45;;;;;;;2.15;1.10;;;35.80;49.60;;;;;;5027614;28;20116;-67
2022/09/23 12:29:12;;;;;;;1.27;0.98;;;37.80;48.30;;;;;;5029344;28;20056;-66
2022/09/23 12:32:35;;;;;;;3.03;1.48;;;32.30;50.90;;;;;;5030823;28;20056;-67
2022/09/23 12:36:05;;;;;;;3.25;1.77;;;31.40;50.90;;;;;;5031530;28;20065;-67
2022/09/23 12:39:23;;;;;;;5.93;1.42;;;30.60;53.00;;;;;;5029382;28;20037;-67
2022/09/23 12:42:47;;;;;;;4.25;2.38;;;31.60;53.00;;;;;;5021018;28;20049;-66
2022/09/23 12:45:52;;;;;;;3.40;1.30;;;29.00;53.00;;;;;;5027956;28;20036;-66
2022/09/23 12:52:31;;;;;;;3.28;1.25;;;34.20;51.40;;;;;;5020821;28;20048;-67
2022/09/23 12:55:35;;;;;;;2.33;0.95;;;35.40;49.60;;;;;;5026100;28;20060;-68
2022/09/23 12:58:58;;;;;;;2.50;0.85;;;30.70;49.10;;;;;;5026554;28;20068;-66
2022/09/23 13:02:36;;;;;;;1.50;1.20;;;29.00;50.30;;;;;;5025886;28;20044;-67
2022/09/23 13:09:24;;;;;;;2.00;1.33;;;29.20;51.00;;;;;;5025946;28;20032;-67
2022/09/23 13:12:33;;;;;;;1.52;1.08;;;30.50;50.90;;;;;;5024162;28;20044;-67
2022/09/23 13:15:38;;;;;;;1.58;0.93;;;31.80;49.40;;;;;;5027348;28;20032;-67
2022/09/23 13:18:54;;;;;;;4.13;1.02;;;33.80;48.60;;;;;;5029739;28;20053;-68
2022/09/23 13:23:00;;;;;;;4.35;1.10;;;34.50;48.30;;;;;;5023938;28;20052;-67
2022/09/23 13:26:12;;;;;;;1.52;1.08;;;36.30;47.50;;;;;;5029064;28;20044;-67
2022/09/23 13:29:52;;;;;;;3.00;1.45;;;33.20;46.40;;;;;;5024909;28;20503;-67
2022/09/23 13:33:25;;;;;;;1.98;0.88;;;34.50;47.70;;;;;;5029615;28;20040;-67
2022/09/23 13:36:47;;;;;;;1.95;0.98;;;31.30;47.60;;;;;;5029621;28;20056;-67
2022/09/23 13:39:51;;;;;;;1.92;1.00;;;31.10;46.70;;;;;;5034707;28;20052;-67
2022/09/23 13:43:00;;;;;;;2.30;1.15;;;31.00;47.30;;;;;;5025294;28;20046;-68
2022/09/23 13:46:14;;;;;;;1.35;0.70;;;33.10;47.70;;;;;;5029876;28;20040;-68
2022/09/23 13:49:39;;;;;;;1.40;0.75;;;35.30;46.90;;;;;;5024846;28;20380;-67
2022/09/23 13:52:44;;;;;;;3.47;0.88;;;38.20;45.00;;;;;;5030354;28;20393;-67
2022/09/23 13:56:13;;;;;;;1.30;0.80;;;38.00;45.50;;;;;;5026367;28;20567;-67
2022/09/23 13:59:40;;;;;;;1.00;0.88;;;36.10;46.40;;;;;;5029965;28;20049;-67
2022/09/23 14:03:15;;;;;;;0.88;0.77;;;33.80;47.60;;;;;;5028630;28;20045;-67
2022/09/23 14:06:39;;;;;;;2.58;1.00;;;34.60;47.70;;;;;;5029222;28;20040;-67
2022/09/23 14:09:47;;;;;;;3.85;1.05;;;33.50;47.80;;;;;;5028603;28;20045;-67
2022/09/23 14:12:53;;;;;;;1.83;0.90;;;34.80;47.80;;;;;;5029309;28;20566;-68
2022/09/23 14:16:02;;;;;;;2.10;1.00;;;33.20;48.00;;;;;;5026801;28;20044;-67
2022/09/23 14:23:10;;;;;;;1.92;1.00;;;27.60;52.30;;;;;;5025015;28;20051;-67
2022/09/23 14:26:14;;;;;;;2.60;0.88;;;29.10;50.30;;;;;;5028614;28;20507;-67
2022/09/23 14:29:31;;;;;;;1.88;0.90;;;30.80;49.80;;;;;;5029476;28;20060;-67
2022/09/23 14:39:33;;;;;;;2.38;0.95;;;30.20;49.30;;;;;;5028889;28;20052;-66
2022/09/23 14:42:40;;;;;;;3.92;1.00;;;28.80;51.70;;;;;;5028866;28;20045;-66
2022/09/23 14:46:04;;;;;;;2.92;1.15;;;28.50;51.60;;;;;;5028958;28;20041;-66
2022/09/23 14:49:10;;;;;;;4.05;0.90;;;28.20;52.30;;;;;;5029594;28;20044;-67
2022/09/23 14:52:14;;;;;;;1.20;0.90;;;27.80;51.80;;;;;;5029046;28;20052;-66
2022/09/23 14:55:18;;;;;;;1.75;1.13;;;27.50;52.50;;;;;;5024394;28;20048;-66
2022/09/23 14:58:41;;;;;;;3.72;1.20;;;27.30;52.90;;;;;;5028221;28;20052;-67
2022/09/23 15:05:38;;;;;;;7.97;1.25;;;27.60;52.70;;;;;;5029529;28;20053;-67
2022/09/23 15:08:43;;;;;;;2.50;0.93;;;26.20;53.90;;;;;;5025187;28;20052;-67
2022/09/23 15:12:06;;;;;;;1.48;1.00;;;25.30;54.80;;;;;;5026219;28;20044;-67
2022/09/23 15:15:14;;;;;;;3.53;1.10;;;25.30;54.50;;;;;;5030031;28;20507;-67
2022/09/23 15:18:23;;;;;;;2.63;0.98;;;25.60;55.10;;;;;;5025352;28;20036;-67
2022/09/23 15:28:57;;;;;;;11.93;1.23;;;25.30;54.80;;;;;;5031647;28;20412;-68
2022/09/23 15:32:01;;;;;;;1.98;0.93;;;25.40;55.40;;;;;;5029789;28;20048;-68
2022/09/23 15:35:25;;;;;;;2.97;1.02;;;25.40;55.10;;;;;;5030658;28;20388;-67
2022/09/23 15:38:29;;;;;;;1.63;1.10;;;25.30;55.40;;;;;;5030064;28;20060;-68
2022/09/23 15:41:52;;;;;;;1.88;1.02;;;25.20;55.90;;;;;;5028738;28;20044;-68
2022/09/23 15:45:14;;;;;;;3.60;1.67;;;25.30;57.20;;;;;;5031677;28;20040;-68
2022/09/23 15:48:24;;;;;;;2.30;1.20;;;25.40;57.10;;;;;;5028372;28;20037;-67
2022/09/23 15:51:29;;;;;;;5.13;1.33;;;25.40;56.10;;;;;;5026007;28;20040;-68
2022/09/23 15:54:52;;;;;;;3.63;1.10;;;25.50;56.30;;;;;;5026564;28;20132;-68
2022/09/23 15:57:56;;;;;;;2.80;1.20;;;25.30;56.60;;;;;;5031781;28;20044;-68
2022/09/23 16:01:00;;;;;;;2.70;1.05;;;25.20;56.10;;;;;;5030403;28;20036;-67
2022/09/23 16:04:24;;;;;;;2.17;1.05;;;25.00;56.00;;;;;;5026991;28;20491;-67
2022/09/23 16:07:28;;;;;;;3.22;1.40;;;24.80;57.10;;;;;;5030659;28;20048;-68
2022/09/23 16:10:32;;;;;;;2.00;1.10;;;24.50;57.60;;;;;;5031890;28;20052;-68
2022/09/23 16:13:36;;;;;;;2.72;1.20;;;24.20;58.60;;;;;;5032157;28;20045;-67
2022/09/23 16:17:02;;;;;;;2.42;1.17;;;23.90;59.00;;;;;;5032398;28;20500;-68
2022/09/23 16:20:28;;;;;;;2.83;1.20;;;23.60;59.40;;;;;;5032525;28;20056;-67
2022/09/23 16:24:10;;;;;;;1.67;1.02;;;23.20;60.00;;;;;;5030634;28;20052;-68
2022/09/23 16:27:17;;;;;;;2.65;1.30;;;22.90;61.10;;;;;;5032793;28;20041;-67
2022/09/23 16:30:40;;;;;;;5.70;1.50;;;22.60;62.30;;;;;;5032800;28;20052;-67
2022/09/23 16:34:03;;;;;;;8.03;1.60;;;22.20;62.30;;;;;;5031851;28;20508;-67
2022/09/23 16:37:26;;;;;;;3.70;1.13;;;22.20;62.80;;;;;;5032044;28;20040;-67
2022/09/23 16:40:31;;;;;;;2.22;1.23;;;22.10;63.70;;;;;;5031924;28;20041;-68
2022/09/23 16:43:38;;;;;;;6.45;1.40;;;22.00;63.50;;;;;;5031717;28;20053;-67
2022/09/23 16:47:00;;;;;;;9.13;1.63;;;21.80;64.40;;;;;;5032437;28;20048;-67
2022/09/23 16:50:04;;;;;;;7.85;1.85;;;21.70;65.00;;;;;;5031272;28;20510;-67
2022/09/23 16:53:15;;;;;;;4.30;1.80;;;21.60;64.20;;;;;;5031496;28;20396;-67
2022/09/23 16:56:21;;;;;;;3.42;1.77;;;21.50;64.80;;;;;;5032317;28;20380;-67
2022/09/23 17:03:38;;;;;;;8.75;2.15;;;21.40;65.00;;;;;;5031858;28;20064;-68
2022/09/23 17:06:31;;;;;;;7.17;2.37;;;21.10;66.00;;;;;;5031697;28;20402;-68
2022/09/23 17:09:35;;;;;;;7.55;2.63;;;20.80;66.90;;;;;;5031730;28;20283;-68
2022/09/23 17:12:39;;;;;;;8.43;2.95;;;20.60;67.30;;;;;;5031662;28;20049;-68
2022/09/23 17:19:07;;;;;;;;;;;20.00;68.50;;;;;;5032000;28;20048;-68
2022/09/23 17:22:10;;;;;;;6.88;2.17;;;19.80;69.00;;;;;;5031318;28;20299;-68
2022/09/23 17:25:15;;;;;;;5.97;2.10;;;19.60;69.20;;;;;;5030734;28;20460;-68
2022/09/23 17:28:38;;;;;;;14.05;3.35;;;19.50;69.40;;;;;;5031295;28;20036;-68
2022/09/23 17:31:43;;;;;;;4.22;2.38;;;19.40;69.70;;;;;;5031136;28;20080;-68
2022/09/23 17:34:47;;;;;;;5.95;2.50;;;19.20;69.80;;;;;;5030841;28;20048;-68
2022/09/23 17:38:28;;;;;;;8.57;2.25;;;19.10;69.90;;;;;;5031046;28;20048;-68
2022/09/23 17:41:32;;;;;;;5.93;2.13;;;19.00;69.90;;;;;;5030951;28;20041;-68
2022/09/23 17:44:36;;;;;;;4.78;1.70;;;19.00;70.10;;;;;;5030443;28;20044;-68
2022/09/23 17:51:22;;;;;;;5.45;1.90;;;18.80;70.60;;;;;;5030504;28;20041;-69
2022/09/23 17:54:44;;;;;;;4.18;1.88;;;18.70;70.60;;;;;;5030518;28;20052;-68
2022/09/23 18:01:30;;;;;;;8.15;2.20;;;18.60;70.40;;;;;;5030480;28;20049;-68
2022/09/23 18:04:34;;;;;;;2.28;1.65;;;18.50;70.90;;;;;;5030259;28;20048;-68
2022/09/23 18:07:56;;;;;;;4.72;1.73;;;18.50;71.00;;;;;;5030968;28;20052;-68
2022/09/23 18:11:15;;;;;;;3.20;1.80;;;18.50;71.30;;;;;;5030812;28;20053;-68
2022/09/23 18:14:21;;;;;;;3.85;1.85;;;18.40;71.20;;;;;;5029956;28;20040;-67
2022/09/23 18:17:43;;;;;;;3.80;1.80;;;18.30;71.50;;;;;;5030633;28;20377;-67
2022/09/23 18:25:10;;;;;;;4.28;1.85;;;18.10;71.60;;;;;;5029392;28;20052;-68
2022/09/23 18:28:32;;;;;;;8.63;1.80;;;18.10;72.10;;;;;;5029943;28;20511;-68
2022/09/23 18:31:37;;;;;;;2.83;1.90;;;18.00;72.30;;;;;;5030238;28;20048;-68
2022/09/23 18:34:59;;;;;;;3.63;1.63;;;18.00;72.40;;;;;;5029905;28;20074;-68
2022/09/23 18:38:22;;;;;;;3.47;1.85;;;17.90;72.70;;;;;;5030081;28;20496;-68
2022/09/23 18:41:25;;;;;;;;;;;17.80;73.40;;;;;;5028804;28;20428;-67
2022/09/23 18:44:30;;;;;;;7.45;1.90;;;17.50;74.60;;;;;;5029663;28;19920;-67
2022/09/23 18:50:56;;;;;;;4.28;2.08;;;17.20;74.70;;;;;;5034500;28;20056;-67
2022/09/23 18:54:02;;;;;;;3.75;2.13;;;17.10;75.20;;;;;;5033403;28;20048;-69
2022/09/23 18:57:06;;;;;;;7.68;3.40;;;17.10;76.00;;;;;;5034026;28;20500;-68
2022/09/23 19:00:29;;;;;;;4.30;2.20;;;17.00;75.80;;;;;;5032586;28;20036;-68
2022/09/23 19:03:55;;;;;;;5.72;2.10;;;17.00;76.30;;;;;;5033603;28;20052;-68
2022/09/23 19:06:59;;;;;;;4.15;2.10;;;16.90;76.20;;;;;;5034098;28;20040;-68
2022/09/23 19:10:03;;;;;;;3.38;1.50;;;16.80;76.40;;;;;;5033409;28;20044;-69